Time;durP1;ratioP1;P1;durP2;ratioP2;P2;SDS_P1;SDS_P2;PMS_P1;PMS_P2;Temp;Humidity;BMP_temperature;BMP_pressure;BME280_temperature;BME280_humidity;BME280_pressure;Samples;Min_cycle;Max_cycle;Signal;HPM_P1;HPM_P2
2023/07/21 00:00:18;;;;;;;;;;;17.10;86.40;;;;;;5006475;28;19910;-79
2023/07/21 00:02:44;;;;;;;;;;;17.10;86.30;;;;;;5024037;28;20383;-80
2023/07/21 00:05:09;;;;;;;;;;;17.10;86.30;;;;;;5012071;28;19936;-80
2023/07/21 00:07:35;;;;;;;;;;;17.10;86.40;;;;;;5003072;28;19910;-78
2023/07/21 00:10:07;;;;;;;;;;;17.00;87.20;;;;;;5015125;28;19973;-79
2023/07/21 00:12:37;;;;;;;;;;;17.00;87.10;;;;;;5022984;28;19916;-79
2023/07/21 00:15:04;;;;;;;;;;;16.90;87.20;;;;;;5020004;28;19948;-79
2023/07/21 00:17:30;;;;;;;;;;;16.90;87.50;;;;;;5024111;28;19909;-79
2023/07/21 00:19:58;;;;;;;;;;;17.00;87.30;;;;;;5017055;28;21069;-79
2023/07/21 00:22:28;;;;;;;;;;;16.80;87.60;;;;;;5016649;28;19971;-79
2023/07/21 00:24:54;;;;;;;;;;;16.80;87.70;;;;;;5012237;28;19953;-79
2023/07/21 00:27:19;;;;;;;;;;;16.90;87.10;;;;;;5001718;28;19952;-80
2023/07/21 00:29:45;;;;;;;;;;;16.80;87.10;;;;;;5024120;28;20451;-80
2023/07/21 00:32:12;;;;;;;;;;;16.80;87.30;;;;;;5033077;28;19913;-78
2023/07/21 00:34:37;;;;;;;;;;;16.70;87.50;;;;;;5006661;28;20018;-80
2023/07/21 00:37:04;;;;;;;;;;;16.70;87.50;;;;;;5012539;28;19917;-80
2023/07/21 00:39:29;;;;;;;;;;;16.70;87.60;;;;;;5034891;28;19909;-80
2023/07/21 00:41:55;;;;;;;;;;;16.80;87.40;;;;;;5003927;28;20018;-80
2023/07/21 00:44:21;;;;;;;;;;;16.80;87.30;;;;;;5004504;28;20278;-80
2023/07/21 00:46:46;;;;;;;;;;;16.70;87.40;;;;;;5007497;28;19917;-79
2023/07/21 00:49:12;;;;;;;;;;;16.70;87.10;;;;;;5020239;28;19989;-79
2023/07/21 00:51:39;;;;;;;;;;;16.70;87.20;;;;;;5007171;28;19949;-80
2023/07/21 00:54:04;;;;;;;;;;;16.70;87.40;;;;;;5006200;28;19913;-80
2023/07/21 00:56:30;;;;;;;;;;;16.60;87.60;;;;;;5034131;28;19910;-80
2023/07/21 00:58:55;;;;;;;;;;;16.50;87.40;;;;;;5017275;28;19909;-79
2023/07/21 01:01:22;;;;;;;;;;;16.50;87.60;;;;;;5019929;28;19918;-78
2023/07/21 01:03:48;;;;;;;;;;;16.50;87.60;;;;;;5000394;28;19918;-80
2023/07/21 01:06:13;;;;;;;;;;;16.40;87.70;;;;;;5027362;28;19921;-79
2023/07/21 01:08:40;;;;;;;;;;;16.20;88.10;;;;;;5016630;28;19964;-79
2023/07/21 01:11:10;;;;;;;;;;;16.10;88.40;;;;;;5034653;28;19932;-79
2023/07/21 01:13:36;;;;;;;;;;;16.20;88.30;;;;;;5006902;28;19956;-80
2023/07/21 01:16:02;;;;;;;;;;;16.30;87.80;;;;;;5012938;28;20322;-80
2023/07/21 01:18:28;;;;;;;;;;;16.30;86.80;;;;;;5023752;28;19913;-80
2023/07/21 01:20:55;;;;;;;;;;;16.20;87.30;;;;;;5033741;28;19909;-80
2023/07/21 01:23:27;;;;;;;;;;;16.10;87.80;;;;;;5024339;28;19964;-80
2023/07/21 01:25:53;;;;;;;;;;;16.10;87.90;;;;;;5023954;28;19944;-80
2023/07/21 01:28:20;;;;;;;;;;;16.10;88.10;;;;;;5015549;28;19920;-80
2023/07/21 01:30:48;;;;;;;;;;;16.10;88.20;;;;;;5017553;28;20455;-79
2023/07/21 01:33:14;;;;;;;;;;;16.20;87.90;;;;;;5023672;28;20043;-80
2023/07/21 01:35:40;;;;;;;;;;;16.20;87.70;;;;;;5014228;28;19914;-79
2023/07/21 01:38:07;;;;;;;;;;;16.10;87.90;;;;;;5006255;28;20349;-78
2023/07/21 01:40:33;;;;;;;;;;;16.20;87.60;;;;;;5024468;28;20428;-78
2023/07/21 01:42:59;;;;;;;;;;;16.10;87.90;;;;;;5028699;28;19949;-80
2023/07/21 01:45:25;;;;;;;;;;;16.20;88.10;;;;;;5001909;28;19909;-80
2023/07/21 01:47:51;;;;;;;;;;;16.20;88.10;;;;;;5010408;28;19913;-80
2023/07/21 01:50:17;;;;;;;;;;;16.30;88.30;;;;;;5024936;28;19987;-79
2023/07/21 01:52:45;;;;;;;;;;;16.30;88.00;;;;;;5026497;28;19917;-79
2023/07/21 01:55:40;;;;;;;;;;;16.30;88.40;;;;;;5005196;28;19952;-80
2023/07/21 01:58:07;;;;;;;;;;;16.20;88.10;;;;;;4987195;28;19909;-80
2023/07/21 02:00:34;;;;;;;;;;;16.20;87.70;;;;;;5005364;28;21810;-79
2023/07/21 02:03:01;;;;;;;;;;;16.30;86.90;;;;;;5012235;28;19925;-79
2023/07/21 02:05:26;;;;;;;;;;;16.30;87.20;;;;;;5021247;28;19916;-79
2023/07/21 02:07:52;;;;;;;;;;;16.40;87.30;;;;;;5013956;28;19917;-80
2023/07/21 02:10:18;;;;;;;;;;;16.30;87.50;;;;;;5019743;28;20349;-80
2023/07/21 02:12:43;;;;;;;;;;;16.20;87.70;;;;;;5014526;28;19953;-80
2023/07/21 02:15:09;;;;;;;;;;;16.20;87.00;;;;;;5009962;28;19910;-80
2023/07/21 02:17:35;;;;;;;;;;;16.20;87.50;;;;;;5023684;28;20306;-79
2023/07/21 02:20:07;;;;;;;;;;;16.20;87.60;;;;;;5025076;28;19920;-80
2023/07/21 02:22:32;;;;;;;;;;;16.20;87.40;;;;;;5029381;28;19917;-79
2023/07/21 02:24:58;;;;;;;;;;;16.30;87.40;;;;;;5037273;28;19993;-79
2023/07/21 02:27:23;;;;;;;;;;;16.30;87.40;;;;;;5031550;28;19914;-78
2023/07/21 02:29:49;;;;;;;;;;;16.20;87.10;;;;;;5041443;28;19941;-79
2023/07/21 02:32:14;;;;;;;;;;;16.20;87.30;;;;;;5033880;28;19952;-80
2023/07/21 02:34:41;;;;;;;;;;;16.10;87.50;;;;;;5033789;28;19921;-80
2023/07/21 02:37:06;;;;;;;;;;;16.20;87.50;;;;;;5022073;28;20000;-79
2023/07/21 02:39:32;;;;;;;;;;;16.20;87.40;;;;;;5038454;28;20019;-80
2023/07/21 02:41:59;;;;;;;;;;;16.20;87.30;;;;;;5011973;28;20338;-80
2023/07/21 02:44:24;;;;;;;;;;;16.10;87.40;;;;;;5018932;28;19913;-80
2023/07/21 02:46:50;;;;;;;;;;;16.10;87.80;;;;;;5028554;28;19913;-80
2023/07/21 02:49:16;;;;;;;;;;;16.10;87.90;;;;;;5014881;28;19936;-80
2023/07/21 02:51:42;;;;;;;;;;;16.20;87.90;;;;;;5026144;28;19917;-80
2023/07/21 02:54:07;;;;;;;;;;;16.30;86.90;;;;;;5024074;28;19913;-80
2023/07/21 02:56:34;;;;;;;;;;;16.30;87.40;;;;;;5016778;28;19917;-80
2023/07/21 02:59:00;;;;;;;;;;;16.30;86.90;;;;;;5018574;28;20380;-78
2023/07/21 03:01:26;;;;;;;;;;;16.30;86.80;;;;;;5024045;28;19921;-80
2023/07/21 03:03:54;;;;;;;;;;;16.30;86.50;;;;;;5018045;28;20392;-80
2023/07/21 03:06:20;;;;;;;;;;;16.20;86.40;;;;;;5032010;28;19960;-79
2023/07/21 03:08:45;;;;;;;;;;;16.20;86.50;;;;;;5035572;28;19917;-79
2023/07/21 03:11:13;;;;;;;;;;;16.20;86.60;;;;;;5013969;28;19909;-80
2023/07/21 03:13:40;;;;;;;;;;;16.20;86.50;;;;;;5028836;28;20300;-80
2023/07/21 03:16:07;;;;;;;;;;;16.20;86.10;;;;;;5009099;28;20373;-80
2023/07/21 03:18:32;;;;;;;;;;;16.10;86.60;;;;;;5013965;28;20000;-79
2023/07/21 03:20:58;;;;;;;;;;;16.10;86.90;;;;;;5026731;28;19952;-80
2023/07/21 03:23:24;;;;;;;;;;;16.00;86.80;;;;;;5024238;28;19924;-80
2023/07/21 03:25:49;;;;;;;;;;;16.00;86.90;;;;;;5034203;28;20308;-79
2023/07/21 03:28:15;;;;;;;;;;;15.90;86.90;;;;;;5031692;28;19935;-80
2023/07/21 03:30:41;;;;;;;;;;;15.80;87.10;;;;;;5033067;28;19917;-80
2023/07/21 03:33:06;;;;;;;;;;;15.80;87.30;;;;;;5036867;28;19948;-80
2023/07/21 03:35:32;;;;;;;;;;;15.80;87.40;;;;;;5035043;28;19914;-79
2023/07/21 03:37:58;;;;;;;;;;;15.90;87.30;;;;;;5040364;28;19919;-79
2023/07/21 03:40:24;;;;;;;;;;;15.80;87.30;;;;;;5025438;28;19952;-80
2023/07/21 03:42:49;;;;;;;;;;;15.80;87.30;;;;;;5024609;28;19913;-80
2023/07/21 03:45:15;;;;;;;;;;;15.80;87.30;;;;;;5016908;28;19935;-80
2023/07/21 03:47:40;;;;;;;;;;;15.70;87.30;;;;;;5007569;28;19928;-81
2023/07/21 03:50:08;;;;;;;;;;;15.70;87.00;;;;;;5021892;28;20018;-80
2023/07/21 03:52:33;;;;;;;;;;;15.70;87.60;;;;;;5004422;28;19917;-81
2023/07/21 03:54:59;;;;;;;;;;;15.80;87.70;;;;;;5024588;28;19920;-79
2023/07/21 03:57:24;;;;;;;;;;;15.80;87.30;;;;;;5008322;28;19910;-80
2023/07/21 03:59:50;;;;;;;;;;;15.90;87.00;;;;;;5027891;28;20388;-81
2023/07/21 04:02:19;;;;;;;;;;;15.90;86.90;;;;;;5010422;28;19924;-81
2023/07/21 04:04:45;;;;;;;;;;;15.80;86.90;;;;;;5016550;28;19935;-79
2023/07/21 04:07:11;;;;;;;;;;;15.90;86.50;;;;;;5009897;28;19913;-79
2023/07/21 04:09:37;;;;;;;;;;;15.90;86.50;;;;;;5033260;28;19920;-79
2023/07/21 04:12:03;;;;;;;;;;;15.90;86.60;;;;;;5011656;28;20079;-80
2023/07/21 04:14:28;;;;;;;;;;;15.90;86.20;;;;;;5028229;28;20413;-79
2023/07/21 04:16:54;;;;;;;;;;;15.90;86.70;;;;;;5022591;28;19948;-80
2023/07/21 04:19:20;;;;;;;;;;;15.80;87.10;;;;;;5024221;28;19913;-80
2023/07/21 04:21:46;;;;;;;;;;;15.70;87.40;;;;;;5031904;28;19992;-80
2023/07/21 04:24:11;;;;;;;;;;;15.70;87.70;;;;;;5028879;28;19909;-80
2023/07/21 04:26:37;;;;;;;;;;;15.70;87.70;;;;;;5006219;28;20278;-80
2023/07/21 04:29:03;;;;;;;;;;;15.70;87.20;;;;;;5017106;28;19931;-80
2023/07/21 04:31:28;;;;;;;;;;;15.80;87.40;;;;;;5019599;28;20701;-80
2023/07/21 04:33:57;;;;;;;;;;;15.60;87.30;;;;;;5018281;28;19913;-80
2023/07/21 04:36:23;;;;;;;;;;;15.60;87.10;;;;;;5030667;28;20464;-79
2023/07/21 04:38:48;;;;;;;;;;;15.60;87.30;;;;;;5024868;28;19964;-80
2023/07/21 04:41:14;;;;;;;;;;;15.60;87.60;;;;;;5028146;28;19915;-80
2023/07/21 04:43:40;;;;;;;;;;;15.60;87.80;;;;;;5004329;28;19968;-80
2023/07/21 04:46:05;;;;;;;;;;;15.70;87.80;;;;;;5036822;28;19915;-80
2023/07/21 04:48:31;;;;;;;;;;;15.70;87.60;;;;;;5021375;28;19918;-80
2023/07/21 04:50:56;;;;;;;;;;;15.70;87.40;;;;;;5006859;28;19927;-81
2023/07/21 04:53:22;;;;;;;;;;;15.80;87.20;;;;;;5009929;28;19913;-79
2023/07/21 04:55:57;;;;;;;;;;;15.80;87.10;;;;;;5015210;28;19956;-80
2023/07/21 04:58:23;;;;;;;;;;;15.90;86.80;;;;;;5010241;28;19996;-80
2023/07/21 05:00:49;;;;;;;;;;;15.90;86.40;;;;;;5031835;28;20529;-80
2023/07/21 05:03:14;;;;;;;;;;;16.00;86.30;;;;;;5027492;28;19917;-80
2023/07/21 05:05:40;;;;;;;;;;;16.00;86.00;;;;;;5030606;28;19959;-80
2023/07/21 05:08:05;;;;;;;;;;;16.00;86.00;;;;;;5008132;28;19921;-79
2023/07/21 05:10:31;;;;;;;;;;;16.00;86.50;;;;;;5031791;28;19995;-80
2023/07/21 05:12:57;;;;;;;;;;;16.00;86.30;;;;;;5007226;28;19925;-80
2023/07/21 05:15:24;;;;;;;;;;;16.00;86.40;;;;;;5019931;28;20270;-81
2023/07/21 05:17:50;;;;;;;;;;;16.10;86.10;;;;;;5031243;28;19922;-79
2023/07/21 05:20:15;;;;;;;;;;;16.10;86.00;;;;;;5012533;28;19909;-81
2023/07/21 05:22:41;;;;;;;;;;;16.10;85.90;;;;;;5020698;28;19964;-79
2023/07/21 05:25:07;;;;;;;;;;;16.20;85.90;;;;;;5016318;28;19917;-80
2023/07/21 05:27:32;;;;;;;;;;;16.30;85.70;;;;;;5005623;28;19922;-80
2023/07/21 05:29:58;;;;;;;;;;;16.40;85.60;;;;;;5013803;28;19924;-80
2023/07/21 05:32:24;;;;;;;;;;;16.40;85.40;;;;;;5028302;28;19951;-79
2023/07/21 05:34:50;;;;;;;;;;;16.40;85.30;;;;;;5013308;28;19932;-80
2023/07/21 05:37:15;;;;;;;;;;;16.40;85.00;;;;;;5022199;28;19973;-80
2023/07/21 05:39:41;;;;;;;;;;;16.50;85.30;;;;;;5005802;28;20024;-80
2023/07/21 05:42:07;;;;;;;;;;;16.50;84.60;;;;;;4999622;28;20321;-80
2023/07/21 05:44:33;;;;;;;;;;;16.50;84.90;;;;;;5024781;28;19909;-79
2023/07/21 05:47:02;;;;;;;;;;;16.60;84.80;;;;;;5012907;28;20301;-80
2023/07/21 05:49:28;;;;;;;;;;;16.60;84.70;;;;;;5016291;28;20419;-79
2023/07/21 05:51:53;;;;;;;;;;;16.60;84.70;;;;;;5020332;28;20003;-80
2023/07/21 05:54:19;;;;;;;;;;;16.50;84.90;;;;;;5007901;28;19916;-81
2023/07/21 05:56:44;;;;;;;;;;;16.60;84.50;;;;;;5007029;28;20400;-80
2023/07/21 05:59:11;;;;;;;;;;;16.60;84.50;;;;;;5025635;28;19921;-81
2023/07/21 06:01:37;;;;;;;;;;;16.70;84.60;;;;;;5025498;28;19913;-79
2023/07/21 06:04:03;;;;;;;;;;;16.80;84.70;;;;;;5021824;28;19976;-80
2023/07/21 06:06:29;;;;;;;;;;;16.80;84.30;;;;;;5026538;28;20375;-80
2023/07/21 06:08:55;;;;;;;;;;;16.90;84.00;;;;;;5008656;28;20520;-80
2023/07/21 06:11:20;;;;;;;;;;;16.90;83.80;;;;;;5024882;28;19953;-79
2023/07/21 06:13:46;;;;;;;;;;;16.90;83.50;;;;;;5002991;28;19925;-80
2023/07/21 06:16:12;;;;;;;;;;;16.90;83.50;;;;;;5028751;28;19909;-83
2023/07/21 06:18:37;;;;;;;;;;;16.90;83.40;;;;;;5016066;28;19967;-82
2023/07/21 06:21:03;;;;;;;;;;;17.00;83.30;;;;;;5022573;28;20281;-82
2023/07/21 06:23:29;;;;;;;;;;;17.00;82.40;;;;;;5022924;28;19917;-82
2023/07/21 06:25:54;;;;;;;;;;;17.10;82.50;;;;;;5027246;28;20416;-82
2023/07/21 06:28:20;;;;;;;;;;;17.10;82.40;;;;;;5018240;28;20372;-83
2023/07/21 06:30:46;;;;;;;;;;;17.30;82.40;;;;;;5020744;28;19917;-84
2023/07/21 06:33:12;;;;;;;;;;;17.30;82.40;;;;;;5016144;28;19968;-85
2023/07/21 06:35:37;;;;;;;;;;;17.50;81.90;;;;;;5023048;28;19914;-85
2023/07/21 06:38:03;;;;;;;;;;;17.50;81.40;;;;;;5024682;28;20361;-85
2023/07/21 06:40:30;;;;;;;;;;;17.30;81.60;;;;;;5012545;28;19917;-85
2023/07/21 06:42:56;;;;;;;;;;;17.40;81.40;;;;;;5021251;28;19924;-85
2023/07/21 06:45:25;;;;;;;;;;;17.30;80.50;;;;;;5021380;28;19917;-85
2023/07/21 06:47:50;;;;;;;;;;;17.50;80.50;;;;;;5010309;28;19928;-86
2023/07/21 06:50:16;;;;;;;;;;;17.40;80.80;;;;;;5019942;28;19914;-84
2023/07/21 06:52:41;;;;;;;;;;;17.40;81.10;;;;;;5027695;28;20363;-85
2023/07/21 06:55:07;;;;;;;;;;;17.60;81.50;;;;;;5002617;28;19922;-85
2023/07/21 06:57:33;;;;;;;;;;;17.60;80.80;;;;;;4982081;22;20589;-87
2023/07/21 06:59:58;;;;;;;;;;;17.60;81.30;;;;;;4940905;28;20523;-89
2023/07/21 07:02:24;;;;;;;;;;;17.60;81.00;;;;;;4964098;28;19926;-88
2023/07/21 07:04:51;;;;;;;;;;;17.80;80.50;;;;;;4961193;28;19960;-87
2023/07/21 07:07:17;;;;;;;;;;;18.10;78.90;;;;;;4945427;28;19914;-87
2023/07/21 07:09:43;;;;;;;;;;;18.10;78.50;;;;;;4950852;28;20009;-90
2023/07/21 07:12:08;;;;;;;;;;;18.30;77.10;;;;;;4982105;28;19922;-91
2023/07/21 07:14:34;;;;;;;;;;;18.40;76.70;;;;;;4954349;28;20009;-88
2023/07/21 07:16:59;;;;;;;;;;;18.40;76.20;;;;;;4954411;28;19928;-87
2023/07/21 07:19:25;;;;;;;;;;;18.30;76.80;;;;;;4954931;28;19922;-88
2023/07/21 07:21:50;;;;;;;;;;;18.20;76.10;;;;;;4953670;28;19918;-88
2023/07/21 07:24:15;;;;;;;;;;;18.20;76.40;;;;;;4985966;28;20001;-88
2023/07/21 07:26:41;;;;;;;;;;;18.20;76.00;;;;;;4976749;28;20182;-89
2023/07/21 07:29:06;;;;;;;;;;;18.30;76.10;;;;;;4981003;28;19941;-88
2023/07/21 07:31:32;;;;;;;;;;;18.30;75.80;;;;;;4976371;28;19936;-90
2023/07/21 07:33:57;;;;;;;;;;;18.20;75.90;;;;;;4971138;28;19919;-89
2023/07/21 07:36:23;;;;;;;;;;;18.20;76.20;;;;;;4959765;28;19914;-88
2023/07/21 07:38:50;;;;;;;;;;;18.30;76.40;;;;;;4955181;28;22295;-89
2023/07/21 07:41:17;;;;;;;;;;;18.40;75.50;;;;;;4961393;28;19915;-89
2023/07/21 07:43:43;;;;;;;;;;;18.50;75.50;;;;;;4959104;28;19918;-90
2023/07/21 07:46:08;;;;;;;;;;;18.50;75.20;;;;;;4960633;28;19977;-89
2023/07/21 07:48:34;;;;;;;;;;;18.40;76.10;;;;;;4972547;28;19929;-87
2023/07/21 07:51:04;;;;;;;;;;;18.50;76.20;;;;;;4957079;28;20010;-88
2023/07/21 07:53:31;;;;;;;;;;;18.60;76.30;;;;;;4953781;28;19918;-88
2023/07/21 07:55:57;;;;;;;;;;;18.80;76.40;;;;;;4974701;28;19937;-89
2023/07/21 07:58:22;;;;;;;;;;;18.90;75.50;;;;;;4958827;28;19924;-88
2023/07/21 08:00:48;;;;;;;;;;;18.90;73.30;;;;;;4956818;28;20418;-88
2023/07/21 08:03:13;;;;;;;;;;;18.90;73.70;;;;;;4973174;28;19918;-88
2023/07/21 08:05:39;;;;;;;;;;;19.00;74.00;;;;;;4954115;28;19918;-88
2023/07/21 08:08:05;;;;;;;;;;;19.10;73.00;;;;;;4958760;28;20505;-88
2023/07/21 08:10:32;;;;;;;;;;;19.20;72.50;;;;;;4963496;28;19921;-88
2023/07/21 08:12:59;;;;;;;;;;;19.30;73.80;;;;;;4961146;28;19910;-88
2023/07/21 08:15:25;;;;;;;;;;;19.50;70.60;;;;;;4958401;28;19957;-88
2023/07/21 08:17:51;;;;;;;;;;;19.60;69.20;;;;;;4958952;28;19924;-90
2023/07/21 08:20:18;;;;;;;;;;;19.60;69.90;;;;;;4976663;28;20353;-88
2023/07/21 08:22:47;;;;;;;;;;;19.70;70.10;;;;;;4957383;28;20095;-87
2023/07/21 08:25:13;;;;;;;;;;;20.00;67.50;;;;;;4962522;28;19977;-88
2023/07/21 08:27:39;;;;;;;;;;;20.00;66.80;;;;;;4956302;28;19954;-87
2023/07/21 08:30:04;;;;;;;;;;;20.10;68.00;;;;;;4953880;28;20005;-88
2023/07/21 08:32:30;;;;;;;;;;;20.20;66.40;;;;;;4950687;28;19914;-88
2023/07/21 08:34:56;;;;;;;;;;;20.10;67.00;;;;;;4970948;28;19918;-88
2023/07/21 08:37:22;;;;;;;;;;;20.00;66.90;;;;;;4972752;28;19914;-88
2023/07/21 08:39:47;;;;;;;;;;;19.80;67.00;;;;;;4959038;28;19932;-88
2023/07/21 08:42:13;;;;;;;;;;;19.70;66.40;;;;;;4974690;28;19925;-88
2023/07/21 08:44:39;;;;;;;;;;;19.60;66.60;;;;;;4959084;28;19915;-88
2023/07/21 08:47:05;;;;;;;;;;;19.60;67.70;;;;;;4960475;28;19915;-88
2023/07/21 08:49:30;;;;;;;;;;;19.80;67.10;;;;;;4958536;28;19918;-89
2023/07/21 08:51:55;;;;;;;;;;;19.80;67.00;;;;;;4958121;28;19936;-88
2023/07/21 08:54:21;;;;;;;;;;;19.90;66.30;;;;;;4956612;28;19992;-88
2023/07/21 08:56:46;;;;;;;;;;;20.00;65.10;;;;;;4977486;28;19928;-88
2023/07/21 08:59:12;;;;;;;;;;;19.90;64.30;;;;;;4962759;28;19945;-88
2023/07/21 09:01:37;;;;;;;;;;;19.90;65.60;;;;;;4954259;28;19917;-89
2023/07/21 09:04:15;;;;;;;;;;;19.90;64.40;;;;;;4961086;28;20043;-88
2023/07/21 09:06:40;;;;;;;;;;;19.90;64.70;;;;;;4962182;28;19944;-89
2023/07/21 09:09:06;;;;;;;;;;;20.00;65.30;;;;;;4963127;28;20009;-88
2023/07/21 09:11:34;;;;;;;;;;;20.00;63.90;;;;;;4961397;28;19910;-89
2023/07/21 09:13:59;;;;;;;;;;;20.10;63.50;;;;;;4960866;28;19914;-90
2023/07/21 09:16:34;;;;;;;;;;;20.10;64.10;;;;;;4964933;28;19918;-88
2023/07/21 09:19:00;;;;;;;;;;;20.00;64.70;;;;;;4979828;28;19917;-89
2023/07/21 09:21:25;;;;;;;;;;;20.30;63.90;;;;;;4959299;28;19911;-88
2023/07/21 09:23:59;;;;;;;;;;;20.30;64.90;;;;;;4960460;28;19933;-88
2023/07/21 09:26:25;;;;;;;;;;;20.10;64.30;;;;;;4963426;28;19937;-89
2023/07/21 09:28:50;;;;;;;;;;;20.10;65.30;;;;;;4958629;28;20344;-88
2023/07/21 09:31:16;;;;;;;;;;;20.20;63.10;;;;;;4961939;28;20334;-88
2023/07/21 09:33:43;;;;;;;;;;;20.20;63.90;;;;;;4961790;28;19949;-89
2023/07/21 09:36:15;;;;;;;;;;;20.20;62.80;;;;;;4965603;28;19914;-89
2023/07/21 09:38:42;;;;;;;;;;;20.30;62.80;;;;;;4957759;28;19918;-89
2023/07/21 09:41:12;;;;;;;;;;;20.50;62.30;;;;;;4963301;28;19914;-89
2023/07/21 09:43:38;;;;;;;;;;;20.60;61.70;;;;;;4968529;28;19925;-88
2023/07/21 09:46:05;;;;;;;;;;;20.70;61.00;;;;;;4970510;28;20214;-88
2023/07/21 09:48:31;;;;;;;;;;;20.70;61.00;;;;;;4973285;28;19910;-90
2023/07/21 09:51:04;;;;;;;;;;;20.60;61.10;;;;;;4969104;28;19914;-89
2023/07/21 09:53:32;;;;;;;;;;;20.60;62.30;;;;;;4961034;28;19910;-89
2023/07/21 09:55:59;;;;;;;;;;;20.70;61.20;;;;;;4961900;28;19914;-89
2023/07/21 09:58:25;;;;;;;;;;;20.90;59.30;;;;;;4960121;28;19937;-89
2023/07/21 10:00:53;;;;;;;;;;;21.00;59.20;;;;;;4952487;28;19922;-90
2023/07/21 10:03:20;;;;;;;;;;;21.10;59.80;;;;;;4957699;28;19918;-89
2023/07/21 10:05:46;;;;;;;;;;;21.00;59.50;;;;;;4958183;28;20045;-89
2023/07/21 10:08:11;;;;;;;;;;;20.90;59.30;;;;;;4957231;28;19949;-89
2023/07/21 10:10:37;;;;;;;;;;;20.80;60.20;;;;;;4960793;28;19910;-89
2023/07/21 10:13:03;;;;;;;;;;;20.70;60.90;;;;;;4960158;28;20513;-90
2023/07/21 10:15:30;;;;;;;;;;;20.80;61.80;;;;;;4957597;28;19914;-89
2023/07/21 10:17:58;;;;;;;;;;;20.80;60.50;;;;;;4960281;28;20371;-89
2023/07/21 10:20:36;;;;;;;;;;;21.00;59.00;;;;;;4958057;28;19914;-89
2023/07/21 10:23:01;;;;;;;;;;;21.00;57.80;;;;;;4956430;28;20004;-89
2023/07/21 10:25:27;;;;;;;;;;;20.90;57.40;;;;;;4958389;28;19926;-88
2023/07/21 10:28:02;;;;;;;;;;;20.90;57.50;;;;;;4956278;28;20080;-89
2023/07/21 10:30:28;;;;;;;;;;;20.80;57.90;;;;;;4953048;28;19925;-89
2023/07/21 10:32:53;;;;;;;;;;;21.00;58.20;;;;;;4956495;28;19914;-88
2023/07/21 10:35:37;;;;;;;;;;;21.10;57.90;;;;;;4957834;28;19921;-89
2023/07/21 10:38:15;;;;;;;;;;;21.20;57.30;;;;;;4950836;28;19925;-87
2023/07/21 10:40:41;;;;;;;;;;;21.40;57.70;;;;;;4964924;28;19918;-87
2023/07/21 10:43:07;;;;;;;;;;;21.60;57.20;;;;;;4951006;28;19926;-87
2023/07/21 10:45:32;;;;;;;;;;;21.60;57.00;;;;;;4954223;28;19910;-88
2023/07/21 10:48:10;;;;;;;;;;;21.70;56.80;;;;;;4954977;28;19957;-88
2023/07/21 10:50:35;;;;;;;;;;;21.80;56.20;;;;;;4955324;28;19914;-88
2023/07/21 10:53:01;;;;;;;;;;;21.80;56.30;;;;;;4954684;28;20167;-88
2023/07/21 10:55:26;;;;;;;;;;;21.70;56.30;;;;;;4955630;28;20294;-88
2023/07/21 10:57:53;;;;;;;;;;;21.70;55.70;;;;;;4956664;28;19987;-88
2023/07/21 11:00:18;;;;;;;;;;;21.70;56.40;;;;;;4955957;28;19918;-87
2023/07/21 11:02:44;;;;;;;;;;;21.70;56.50;;;;;;4972824;28;20304;-88
2023/07/21 11:05:10;;;;;;;;;;;22.00;56.70;;;;;;4974748;28;19910;-88
2023/07/21 11:07:36;;;;;;;;;;;22.10;55.50;;;;;;4958035;28;19988;-88
2023/07/21 11:10:01;;;;;;;;;;;22.30;54.80;;;;;;4955298;28;20287;-88
2023/07/21 11:12:27;;;;;;;;;;;22.30;55.50;;;;;;4958584;28;20276;-87
2023/07/21 11:14:54;;;;;;;;;;;22.40;54.80;;;;;;4958158;28;20409;-88
2023/07/21 11:17:20;;;;;;;;;;;22.30;53.70;;;;;;4957314;28;20379;-89
2023/07/21 11:19:46;;;;;;;;;;;22.10;54.20;;;;;;4956126;28;19917;-88
2023/07/21 11:22:12;;;;;;;;;;;22.10;55.30;;;;;;4954426;28;19921;-88
2023/07/21 11:24:37;;;;;;;;;;;22.10;56.30;;;;;;4952765;28;19914;-88
2023/07/21 11:27:07;;;;;;;;;;;22.20;55.90;;;;;;4956631;28;19914;-88
2023/07/21 11:29:38;;;;;;;;;;;22.20;54.30;;;;;;4950811;28;19914;-88
2023/07/21 11:32:15;;;;;;;;;;;22.30;54.20;;;;;;4969619;28;19924;-88
2023/07/21 11:34:41;;;;;;;;;;;22.50;53.30;;;;;;4957033;28;20376;-88
2023/07/21 11:37:06;;;;;;;;;;;22.50;54.10;;;;;;4973704;28;19910;-88
2023/07/21 11:39:33;;;;;;;;;;;22.50;53.60;;;;;;4955405;28;19921;-88
2023/07/21 11:41:59;;;;;;;;;;;22.80;53.70;;;;;;4975241;28;19949;-88
2023/07/21 11:44:26;;;;;;;;;;;22.90;52.70;;;;;;4956542;28;19968;-87
2023/07/21 11:46:55;;;;;;;;;;;22.90;51.80;;;;;;4956194;28;19914;-88
2023/07/21 11:49:22;;;;;;;;;;;23.00;51.30;;;;;;4956197;28;19914;-88
2023/07/21 11:51:49;;;;;;;;;;;23.10;51.30;;;;;;4956734;28;19956;-88
2023/07/21 11:54:20;;;;;;;;;;;23.10;51.20;;;;;;4973371;28;20675;-88
2023/07/21 11:56:46;;;;;;;;;;;22.90;51.30;;;;;;4957196;28;20469;-91
2023/07/21 11:59:11;;;;;;;;;;;22.80;51.30;;;;;;4956242;28;19923;-88
2023/07/21 12:01:38;;;;;;;;;;;22.90;51.60;;;;;;4956532;28;20418;-89
2023/07/21 12:04:04;;;;;;;;;;;22.80;51.00;;;;;;4974126;28;19918;-88
2023/07/21 12:06:30;;;;;;;;;;;22.80;50.50;;;;;;4954980;28;20081;-88
2023/07/21 12:08:55;;;;;;;;;;;23.00;51.60;;;;;;4953079;28;19932;-88
2023/07/21 12:11:20;;;;;;;;;;;23.00;52.00;;;;;;4954020;28;19975;-88
2023/07/21 12:13:46;;;;;;;;;;;23.10;50.70;;;;;;4973137;28;19922;-88
2023/07/21 12:16:12;;;;;;;;;;;23.20;52.20;;;;;;4952852;28;19914;-88
2023/07/21 12:18:38;;;;;;;;;;;23.20;51.60;;;;;;4958704;28;19949;-88
2023/07/21 12:21:06;;;;;;;;;;;23.50;50.30;;;;;;4970131;28;19910;-89
2023/07/21 12:23:32;;;;;;;;;;;23.60;51.80;;;;;;4986704;28;19925;-87
2023/07/21 12:25:57;;;;;;;;;;;23.70;48.40;;;;;;4956923;28;19911;-88
2023/07/21 12:28:23;;;;;;;;;;;23.70;48.20;;;;;;4972524;28;20003;-87
2023/07/21 12:30:48;;;;;;;;;;;23.60;48.10;;;;;;4953967;28;20206;-87
2023/07/21 12:33:14;;;;;;;;;;;23.80;48.50;;;;;;4967775;28;19918;-88
2023/07/21 12:35:42;;;;;;;;;;;23.70;49.00;;;;;;4954912;28;19940;-89
2023/07/21 12:38:07;;;;;;;;;;;23.40;47.30;;;;;;4953762;28;20024;-89
2023/07/21 12:40:33;;;;;;;;;;;23.00;47.80;;;;;;4953838;28;19953;-87
2023/07/21 12:42:58;;;;;;;;;;;22.80;49.50;;;;;;4955586;28;19925;-88
2023/07/21 12:45:24;;;;;;;;;;;22.60;49.90;;;;;;4954067;28;19918;-88
2023/07/21 12:47:49;;;;;;;;;;;22.40;50.30;;;;;;4955606;28;19918;-89
2023/07/21 12:50:15;;;;;;;;;;;22.40;50.20;;;;;;4956589;28;19914;-88
2023/07/21 12:52:40;;;;;;;;;;;22.20;50.20;;;;;;4954164;28;19918;-88
2023/07/21 12:55:06;;;;;;;;;;;22.10;51.00;;;;;;4954386;28;20563;-87
2023/07/21 12:57:32;;;;;;;;;;;22.10;53.90;;;;;;4955638;28;19918;-88
2023/07/21 12:59:57;;;;;;;;;;;21.80;59.80;;;;;;4958351;28;19915;-89
2023/07/21 13:02:23;;;;;;;;;;;21.50;67.60;;;;;;4962710;28;20049;-89
2023/07/21 13:04:49;;;;;;;;;;;21.10;69.00;;;;;;4961335;28;19914;-90
2023/07/21 13:07:15;;;;;;;;;;;20.80;66.20;;;;;;4961951;28;19959;-89
2023/07/21 13:09:40;;;;;;;;;;;20.70;66.10;;;;;;4963918;28;19928;-89
2023/07/21 13:12:06;;;;;;;;;;;20.70;68.70;;;;;;4963482;28;19910;-89
2023/07/21 13:14:32;;;;;;;;;;;20.70;66.50;;;;;;4961584;28;19915;-89
2023/07/21 13:16:58;;;;;;;;;;;20.70;66.30;;;;;;4963593;28;19921;-90
2023/07/21 13:19:24;;;;;;;;;;;21.00;66.00;;;;;;4964380;28;20303;-90
2023/07/21 13:21:50;;;;;;;;;;;21.10;69.20;;;;;;4965231;28;19922;-90
2023/07/21 13:24:15;;;;;;;;;;;21.20;71.20;;;;;;4961367;28;19926;-89
2023/07/21 13:26:41;;;;;;;;;;;21.40;64.20;;;;;;4962874;28;19918;-89
2023/07/21 13:29:11;;;;;;;;;;;21.60;63.50;;;;;;4965474;28;19960;-89
2023/07/21 13:31:37;;;;;;;;;;;21.60;68.20;;;;;;4961801;28;19915;-89
2023/07/21 13:34:02;;;;;;;;;;;21.60;65.30;;;;;;4964420;28;19925;-93
2023/07/21 13:36:29;;;;;;;;;;;21.60;64.10;;;;;;4961866;28;19985;-89
2023/07/21 13:38:54;;;;;;;;;;;21.60;63.30;;;;;;4983861;28;20483;-89
2023/07/21 13:41:20;;;;;;;;;;;21.70;62.10;;;;;;4965518;28;19911;-89
2023/07/21 13:43:45;;;;;;;;;;;21.70;61.60;;;;;;4962596;28;19922;-89
2023/07/21 13:46:11;;;;;;;;;;;21.80;61.80;;;;;;4963426;28;19921;-88
2023/07/21 13:48:36;;;;;;;;;;;21.80;61.40;;;;;;4965808;28;19911;-90
2023/07/21 13:51:02;;;;;;;;;;;21.60;62.70;;;;;;4963557;28;19910;-89
2023/07/21 13:53:28;;;;;;;;;;;21.50;59.90;;;;;;4964079;28;19910;-89
2023/07/21 13:55:53;;;;;;;;;;;21.20;60.80;;;;;;4963281;28;19921;-89
2023/07/21 13:58:19;;;;;;;;;;;21.10;61.00;;;;;;4962571;28;19922;-89
2023/07/21 14:00:44;;;;;;;;;;;21.10;57.80;;;;;;4960050;28;19919;-88
2023/07/21 14:03:10;;;;;;;;;;;20.90;60.80;;;;;;4957834;28;19924;-89
2023/07/21 14:05:35;;;;;;;;;;;20.70;65.10;;;;;;4957194;28;20306;-88
2023/07/21 14:08:00;;;;;;;;;;;19.90;68.70;;;;;;4969075;28;19914;-89
2023/07/21 14:10:26;;;;;;;;;;;19.20;71.70;;;;;;4990348;28;19932;-88